Terminal Aerodrome Forecast
Issued by NWS Jackson, KY

Home | Current Version | Previous Version | Text Only | Print | Product List | Glossary On
Versions: 1 2 3 4 5 6 7 8 9 10 11 12 13 14 15 16 17 18 19 20
000
FTUS43 KJKL 072300 RRA
TAFJKL
TAF
KJKL 072343Z 0800/0824 22005KT P6SM SCT250
     FM080300 21004KT P6SM VCSH BKN060
     FM080900 21005KT P6SM VCTS BKN050CB WS020/24035KT
     FM081500 22010G20KT P6SM VCSH BKN050
     FM081900 23012G22KT 4SM +SHRA VCTS SCT020 BKN030CB=

USA.gov is the U.S. government's official web portal to all federal, state and local government web resources and services.